Sacramento/McClellan AFB, California
Current Conditions -  °F | °C
As of 11:30 PM on Thursday 30 Oct 2014 (Local Time) from KMHR Reporting Station
Broken Clouds Broken Clouds  
Wind Chill: 63°   Ceiling: 12000
Heat Index: 63°   Visibility: 10mi
Dew Point: 55°   Wind: 3mph
Humidity: 77%   Direction: 220°SW
Pressure: 29.87"   Gusts: NA
Location:  38.66°N, 121.4°W
Report Text: KMHR 310630Z 22003KT 10SM BKN120 17/13 A2987
Loading
Personal Weather Stations






























Interactive Weather Map
Tropical Storm Tracking
New forecast layout! Learn more

10-Day Weather Forecast

Advertisements
Track Severe Weather on mobile